sensor_id;sensor_type;location;lat;lon;timestamp;temperature;humidity
68109;SHT30;54893;49.864;19.084;2022-10-16T00:02:35;14.95;74.80
68109;SHT30;54893;49.864;19.084;2022-10-16T00:07:35;15.06;74.40
68109;SHT30;54893;49.864;19.084;2022-10-16T00:12:36;14.96;74.79
68109;SHT30;54893;49.864;19.084;2022-10-16T00:17:36;14.77;75.23
68109;SHT30;54893;49.864;19.084;2022-10-16T00:22:36;14.89;74.86
68109;SHT30;54893;49.864;19.084;2022-10-16T00:27:37;14.85;75.06
68109;SHT30;54893;49.864;19.084;2022-10-16T00:32:37;15.00;74.40
68109;SHT30;54893;49.864;19.084;2022-10-16T00:37:37;14.87;74.84
68109;SHT30;54893;49.864;19.084;2022-10-16T00:42:38;14.71;75.58
68109;SHT30;54893;49.864;19.084;2022-10-16T00:47:40;14.55;76.00
68109;SHT30;54893;49.864;19.084;2022-10-16T00:52:45;14.71;75.72
68109;SHT30;54893;49.864;19.084;2022-10-16T00:57:46;14.77;75.75
68109;SHT30;54893;49.864;19.084;2022-10-16T01:03:02;14.82;75.84
68109;SHT30;54893;49.864;19.084;2022-10-16T01:08:26;14.65;76.08
68109;SHT30;54893;49.864;19.084;2022-10-16T01:13:52;14.75;75.84
68109;SHT30;54893;49.864;19.084;2022-10-16T01:19:20;14.72;76.09
68109;SHT30;54893;49.864;19.084;2022-10-16T01:34:55;14.76;76.17
68109;SHT30;54893;49.864;19.084;2022-10-16T01:39:58;14.82;76.21
68109;SHT30;54893;49.864;19.084;2022-10-16T01:45:01;14.75;76.41
68109;SHT30;54893;49.864;19.084;2022-10-16T01:50:04;14.80;76.75
68109;SHT30;54893;49.864;19.084;2022-10-16T01:55:07;14.68;76.87
68109;SHT30;54893;49.864;19.084;2022-10-16T02:00:11;14.71;76.82
68109;SHT30;54893;49.864;19.084;2022-10-16T02:05:22;14.51;77.52
68109;SHT30;54893;49.864;19.084;2022-10-16T02:10:24;14.39;77.85
68109;SHT30;54893;49.864;19.084;2022-10-16T02:15:25;14.29;78.04
68109;SHT30;54893;49.864;19.084;2022-10-16T02:20:28;14.28;78.40
68109;SHT30;54893;49.864;19.084;2022-10-16T02:25:31;14.41;77.80
68109;SHT30;54893;49.864;19.084;2022-10-16T02:31:01;14.55;77.63
68109;SHT30;54893;49.864;19.084;2022-10-16T02:36:03;14.65;77.49
68109;SHT30;54893;49.864;19.084;2022-10-16T02:41:04;14.61;77.48
68109;SHT30;54893;49.864;19.084;2022-10-16T02:46:05;14.35;78.24
68109;SHT30;54893;49.864;19.084;2022-10-16T02:51:06;14.33;78.24
68109;SHT30;54893;49.864;19.084;2022-10-16T02:56:06;14.17;78.60
68109;SHT30;54893;49.864;19.084;2022-10-16T03:01:07;13.97;79.26
68109;SHT30;54893;49.864;19.084;2022-10-16T03:06:08;13.81;79.60
68109;SHT30;54893;49.864;19.084;2022-10-16T03:11:08;13.67;80.66
68109;SHT30;54893;49.864;19.084;2022-10-16T03:16:09;13.58;80.19
68109;SHT30;54893;49.864;19.084;2022-10-16T03:21:09;13.57;80.76
68109;SHT30;54893;49.864;19.084;2022-10-16T03:26:09;13.54;80.97
68109;SHT30;54893;49.864;19.084;2022-10-16T03:31:10;13.54;80.46
68109;SHT30;54893;49.864;19.084;2022-10-16T03:36:10;13.47;80.93
68109;SHT30;54893;49.864;19.084;2022-10-16T03:41:10;13.61;80.40
68109;SHT30;54893;49.864;19.084;2022-10-16T03:46:11;13.70;80.07
68109;SHT30;54893;49.864;19.084;2022-10-16T03:51:11;13.53;81.19
68109;SHT30;54893;49.864;19.084;2022-10-16T03:56:13;13.53;80.81
68109;SHT30;54893;49.864;19.084;2022-10-16T04:01:14;13.47;80.38
68109;SHT30;54893;49.864;19.084;2022-10-16T04:06:15;13.73;79.97
68109;SHT30;54893;49.864;19.084;2022-10-16T04:11:15;13.43;80.88
68109;SHT30;54893;49.864;19.084;2022-10-16T04:16:15;13.28;80.73
68109;SHT30;54893;49.864;19.084;2022-10-16T04:21:16;13.22;81.86
68109;SHT30;54893;49.864;19.084;2022-10-16T04:26:16;13.28;80.76
68109;SHT30;54893;49.864;19.084;2022-10-16T04:31:17;13.46;80.34
68109;SHT30;54893;49.864;19.084;2022-10-16T04:36:17;13.67;80.03
68109;SHT30;54893;49.864;19.084;2022-10-16T04:41:18;13.77;79.66
68109;SHT30;54893;49.864;19.084;2022-10-16T04:46:18;13.82;79.74
68109;SHT30;54893;49.864;19.084;2022-10-16T04:51:19;13.87;79.86
68109;SHT30;54893;49.864;19.084;2022-10-16T04:56:19;13.92;79.44
68109;SHT30;54893;49.864;19.084;2022-10-16T05:01:20;14.17;78.99
68109;SHT30;54893;49.864;19.084;2022-10-16T05:06:21;14.11;79.19
68109;SHT30;54893;49.864;19.084;2022-10-16T05:11:21;14.07;79.54
68109;SHT30;54893;49.864;19.084;2022-10-16T05:16:21;14.09;79.31
68109;SHT30;54893;49.864;19.084;2022-10-16T05:21:22;14.26;78.72
68109;SHT30;54893;49.864;19.084;2022-10-16T05:26:22;14.46;78.32
68109;SHT30;54893;49.864;19.084;2022-10-16T05:31:23;14.58;77.70
68109;SHT30;54893;49.864;19.084;2022-10-16T05:36:23;14.72;77.33
68109;SHT30;54893;49.864;19.084;2022-10-16T05:41:24;14.73;77.21
68109;SHT30;54893;49.864;19.084;2022-10-16T05:46:26;14.72;77.15
68109;SHT30;54893;49.864;19.084;2022-10-16T05:51:26;14.92;76.35
68109;SHT30;54893;49.864;19.084;2022-10-16T05:56:26;14.87;76.96
68109;SHT30;54893;49.864;19.084;2022-10-16T06:01:27;14.89;76.48
68109;SHT30;54893;49.864;19.084;2022-10-16T06:06:27;14.95;75.97
68109;SHT30;54893;49.864;19.084;2022-10-16T06:11:30;15.09;75.74
68109;SHT30;54893;49.864;19.084;2022-10-16T06:16:31;15.58;74.71
68109;SHT30;54893;49.864;19.084;2022-10-16T06:21:31;16.21;73.38
68109;SHT30;54893;49.864;19.084;2022-10-16T06:26:31;16.55;71.78
68109;SHT30;54893;49.864;19.084;2022-10-16T06:31:32;16.96;71.03
68109;SHT30;54893;49.864;19.084;2022-10-16T06:36:33;17.29;69.81
68109;SHT30;54893;49.864;19.084;2022-10-16T06:41:33;17.54;69.49
68109;SHT30;54893;49.864;19.084;2022-10-16T06:46:34;17.71;68.36
68109;SHT30;54893;49.864;19.084;2022-10-16T06:51:35;17.81;68.45
68109;SHT30;54893;49.864;19.084;2022-10-16T06:56:36;17.70;68.39
68109;SHT30;54893;49.864;19.084;2022-10-16T07:01:37;17.88;68.00
68109;SHT30;54893;49.864;19.084;2022-10-16T07:06:38;18.32;67.13
68109;SHT30;54893;49.864;19.084;2022-10-16T07:11:39;18.52;66.45
68109;SHT30;54893;49.864;19.084;2022-10-16T07:16:39;18.85;65.58
68109;SHT30;54893;49.864;19.084;2022-10-16T07:21:40;19.27;65.28
68109;SHT30;54893;49.864;19.084;2022-10-16T07:26:43;19.67;63.24
68109;SHT30;54893;49.864;19.084;2022-10-16T07:31:44;20.26;62.17
68109;SHT30;54893;49.864;19.084;2022-10-16T07:36:48;19.85;62.92
68109;SHT30;54893;49.864;19.084;2022-10-16T07:41:48;19.91;61.89
68109;SHT30;54893;49.864;19.084;2022-10-16T07:46:49;19.84;61.93
68109;SHT30;54893;49.864;19.084;2022-10-16T07:51:49;19.46;63.42
68109;SHT30;54893;49.864;19.084;2022-10-16T07:56:50;19.00;63.85
68109;SHT30;54893;49.864;19.084;2022-10-16T08:01:50;18.81;64.80
68109;SHT30;54893;49.864;19.084;2022-10-16T08:06:51;18.72;65.57
68109;SHT30;54893;49.864;19.084;2022-10-16T08:11:51;19.46;63.67
68109;SHT30;54893;49.864;19.084;2022-10-16T08:16:52;20.00;62.66
68109;SHT30;54893;49.864;19.084;2022-10-16T08:21:53;19.87;61.77
68109;SHT30;54893;49.864;19.084;2022-10-16T08:26:53;19.74;63.22
68109;SHT30;54893;49.864;19.084;2022-10-16T08:31:54;19.74;62.79
68109;SHT30;54893;49.864;19.084;2022-10-16T08:36:55;20.07;62.22
68109;SHT30;54893;49.864;19.084;2022-10-16T08:42:04;20.36;60.80
68109;SHT30;54893;49.864;19.084;2022-10-16T08:47:19;20.64;60.62
68109;SHT30;54893;49.864;19.084;2022-10-16T08:52:21;20.90;60.16
68109;SHT30;54893;49.864;19.084;2022-10-16T08:57:24;20.83;59.57
68109;SHT30;54893;49.864;19.084;2022-10-16T09:18:24;21.14;59.18
68109;SHT30;54893;49.864;19.084;2022-10-16T09:23:33;21.12;59.97
68109;SHT30;54893;49.864;19.084;2022-10-16T09:28:34;21.04;59.81
68109;SHT30;54893;49.864;19.084;2022-10-16T09:33:36;20.99;59.87
68109;SHT30;54893;49.864;19.084;2022-10-16T09:38:37;21.10;60.53
68109;SHT30;54893;49.864;19.084;2022-10-16T09:49:05;20.92;59.41
68109;SHT30;54893;49.864;19.084;2022-10-16T09:59:12;21.12;59.85
68109;SHT30;54893;49.864;19.084;2022-10-16T10:04:13;21.07;60.19
68109;SHT30;54893;49.864;19.084;2022-10-16T10:09:20;21.10;60.39
68109;SHT30;54893;49.864;19.084;2022-10-16T10:14:35;21.46;59.64
68109;SHT30;54893;49.864;19.084;2022-10-16T10:24:59;21.10;61.35
68109;SHT30;54893;49.864;19.084;2022-10-16T10:30:01;21.00;61.13
68109;SHT30;54893;49.864;19.084;2022-10-16T10:46:32;20.79;62.45
68109;SHT30;54893;49.864;19.084;2022-10-16T10:57:33;20.83;60.59
68109;SHT30;54893;49.864;19.084;2022-10-16T11:02:42;20.71;61.75
68109;SHT30;54893;49.864;19.084;2022-10-16T11:07:59;20.68;62.62
68109;SHT30;54893;49.864;19.084;2022-10-16T11:13:21;20.68;62.89
68109;SHT30;54893;49.864;19.084;2022-10-16T11:18:30;20.96;62.37
68109;SHT30;54893;49.864;19.084;2022-10-16T11:28:45;21.30;61.39
68109;SHT30;54893;49.864;19.084;2022-10-16T11:39:29;21.10;61.44
68109;SHT30;54893;49.864;19.084;2022-10-16T11:49:44;20.96;62.79
68109;SHT30;54893;49.864;19.084;2022-10-16T11:55:08;20.99;62.71
68109;SHT30;54893;49.864;19.084;2022-10-16T12:10:42;20.75;63.28
68109;SHT30;54893;49.864;19.084;2022-10-16T12:15:43;20.62;64.09
68109;SHT30;54893;49.864;19.084;2022-10-16T12:20:55;20.72;63.29
68109;SHT30;54893;49.864;19.084;2022-10-16T12:25:59;20.89;63.56
68109;SHT30;54893;49.864;19.084;2022-10-16T12:31:05;20.92;62.55
68109;SHT30;54893;49.864;19.084;2022-10-16T12:36:14;20.89;63.00
68109;SHT30;54893;49.864;19.084;2022-10-16T12:41:28;20.82;62.89
68109;SHT30;54893;49.864;19.084;2022-10-16T12:56:56;20.69;61.86
68109;SHT30;54893;49.864;19.084;2022-10-16T13:07:48;20.10;63.87
68109;SHT30;54893;49.864;19.084;2022-10-16T13:13:02;20.18;63.43
68109;SHT30;54893;49.864;19.084;2022-10-16T13:18:16;20.29;62.98
68109;SHT30;54893;49.864;19.084;2022-10-16T13:23:33;20.64;62.68
68109;SHT30;54893;49.864;19.084;2022-10-16T13:28:38;20.79;62.43
68109;SHT30;54893;49.864;19.084;2022-10-16T13:33:41;20.80;63.25
68109;SHT30;54893;49.864;19.084;2022-10-16T13:38:42;20.82;62.66
68109;SHT30;54893;49.864;19.084;2022-10-16T13:43:45;20.93;63.11
68109;SHT30;54893;49.864;19.084;2022-10-16T13:49:02;21.02;62.33
68109;SHT30;54893;49.864;19.084;2022-10-16T13:54:02;20.82;63.28
68109;SHT30;54893;49.864;19.084;2022-10-16T13:59:06;21.44;63.11
68109;SHT30;54893;49.864;19.084;2022-10-16T14:04:09;21.18;61.79
68109;SHT30;54893;49.864;19.084;2022-10-16T14:09:30;21.06;62.96
68109;SHT30;54893;49.864;19.084;2022-10-16T14:14:38;20.41;64.97
68109;SHT30;54893;49.864;19.084;2022-10-16T14:19:39;20.21;64.91
68109;SHT30;54893;49.864;19.084;2022-10-16T14:24:40;20.00;65.53
68109;SHT30;54893;49.864;19.084;2022-10-16T14:29:40;19.85;65.85
68109;SHT30;54893;49.864;19.084;2022-10-16T14:34:40;19.73;66.60
68109;SHT30;54893;49.864;19.084;2022-10-16T14:39:41;20.17;64.77
68109;SHT30;54893;49.864;19.084;2022-10-16T14:44:41;20.00;65.40
68109;SHT30;54893;49.864;19.084;2022-10-16T14:49:42;19.63;66.41
68109;SHT30;54893;49.864;19.084;2022-10-16T14:54:43;19.80;66.08
68109;SHT30;54893;49.864;19.084;2022-10-16T14:59:44;19.85;66.21
68109;SHT30;54893;49.864;19.084;2022-10-16T15:04:45;22.30;62.31
68109;SHT30;54893;49.864;19.084;2022-10-16T15:09:45;23.20;61.04
68109;SHT30;54893;49.864;19.084;2022-10-16T15:14:45;20.73;66.16
68109;SHT30;54893;49.864;19.084;2022-10-16T15:19:46;19.78;67.98
68109;SHT30;54893;49.864;19.084;2022-10-16T15:24:46;19.34;67.97
68109;SHT30;54893;49.864;19.084;2022-10-16T15:29:46;18.79;68.62
68109;SHT30;54893;49.864;19.084;2022-10-16T15:34:47;18.11;70.19
68109;SHT30;54893;49.864;19.084;2022-10-16T15:39:50;17.66;71.10
68109;SHT30;54893;49.864;19.084;2022-10-16T15:44:50;17.51;71.29
68109;SHT30;54893;49.864;19.084;2022-10-16T15:49:50;17.09;71.69
68109;SHT30;54893;49.864;19.084;2022-10-16T15:54:51;17.03;71.43
68109;SHT30;54893;49.864;19.084;2022-10-16T15:59:52;16.93;73.61
68109;SHT30;54893;49.864;19.084;2022-10-16T16:04:52;16.68;72.12
68109;SHT30;54893;49.864;19.084;2022-10-16T16:09:53;16.66;73.08
68109;SHT30;54893;49.864;19.084;2022-10-16T16:14:53;16.75;72.24
68109;SHT30;54893;49.864;19.084;2022-10-16T16:19:54;16.73;72.41
68109;SHT30;54893;49.864;19.084;2022-10-16T16:24:54;16.69;72.94
68109;SHT30;54893;49.864;19.084;2022-10-16T16:29:55;16.61;73.03
68109;SHT30;54893;49.864;19.084;2022-10-16T16:34:55;16.76;73.71
68109;SHT30;54893;49.864;19.084;2022-10-16T16:39:56;16.73;73.61
68109;SHT30;54893;49.864;19.084;2022-10-16T16:44:58;16.62;74.14
68109;SHT30;54893;49.864;19.084;2022-10-16T16:49:59;16.61;74.04
68109;SHT30;54893;49.864;19.084;2022-10-16T16:54:59;16.61;74.15
68109;SHT30;54893;49.864;19.084;2022-10-16T17:00:00;16.68;73.84
68109;SHT30;54893;49.864;19.084;2022-10-16T17:05:00;16.44;73.99
68109;SHT30;54893;49.864;19.084;2022-10-16T17:10:02;16.07;74.99
68109;SHT30;54893;49.864;19.084;2022-10-16T17:15:28;15.91;76.24
68109;SHT30;54893;49.864;19.084;2022-10-16T17:20:29;15.75;75.42
68109;SHT30;54893;49.864;19.084;2022-10-16T17:25:29;15.75;75.12
68109;SHT30;54893;49.864;19.084;2022-10-16T17:30:30;15.85;75.28
68109;SHT30;54893;49.864;19.084;2022-10-16T17:35:46;15.88;75.70
68109;SHT30;54893;49.864;19.084;2022-10-16T17:40:46;15.90;75.50
68109;SHT30;54893;49.864;19.084;2022-10-16T17:45:47;15.63;76.24
68109;SHT30;54893;49.864;19.084;2022-10-16T17:50:47;15.23;77.32
68109;SHT30;54893;49.864;19.084;2022-10-16T17:55:47;15.16;77.31
68109;SHT30;54893;49.864;19.084;2022-10-16T18:00:50;15.22;77.36
68109;SHT30;54893;49.864;19.084;2022-10-16T18:05:50;15.13;77.52
68109;SHT30;54893;49.864;19.084;2022-10-16T18:10:50;15.03;78.24
68109;SHT30;54893;49.864;19.084;2022-10-16T18:16:06;15.06;78.17
68109;SHT30;54893;49.864;19.084;2022-10-16T18:21:12;14.92;78.08
68109;SHT30;54893;49.864;19.084;2022-10-16T18:26:13;14.71;78.71
68109;SHT30;54893;49.864;19.084;2022-10-16T18:31:16;14.68;79.18
68109;SHT30;54893;49.864;19.084;2022-10-16T18:36:25;14.42;79.69
68109;SHT30;54893;49.864;19.084;2022-10-16T18:41:29;14.25;80.73
68109;SHT30;54893;49.864;19.084;2022-10-16T18:46:31;14.31;79.71
68109;SHT30;54893;49.864;19.084;2022-10-16T18:51:39;14.41;79.42
68109;SHT30;54893;49.864;19.084;2022-10-16T18:56:40;14.17;79.93
68109;SHT30;54893;49.864;19.084;2022-10-16T19:01:41;14.20;81.86
68109;SHT30;54893;49.864;19.084;2022-10-16T19:06:45;14.14;80.18
68109;SHT30;54893;49.864;19.084;2022-10-16T19:11:45;14.31;79.82
68109;SHT30;54893;49.864;19.084;2022-10-16T19:16:46;14.26;79.59
68109;SHT30;54893;49.864;19.084;2022-10-16T19:21:47;14.24;80.24
68109;SHT30;54893;49.864;19.084;2022-10-16T19:26:54;14.18;80.22
68109;SHT30;54893;49.864;19.084;2022-10-16T19:31:57;14.20;80.41
68109;SHT30;54893;49.864;19.084;2022-10-16T19:36:58;14.43;79.06
68109;SHT30;54893;49.864;19.084;2022-10-16T19:41:58;14.35;79.65
68109;SHT30;54893;49.864;19.084;2022-10-16T19:46:58;14.36;79.20
68109;SHT30;54893;49.864;19.084;2022-10-16T19:51:59;14.71;78.78
68109;SHT30;54893;49.864;19.084;2022-10-16T19:56:59;14.79;78.76
68109;SHT30;54893;49.864;19.084;2022-10-16T20:02:01;14.79;78.84
68109;SHT30;54893;49.864;19.084;2022-10-16T20:07:01;14.90;78.83
68109;SHT30;54893;49.864;19.084;2022-10-16T20:12:02;14.87;78.83
68109;SHT30;54893;49.864;19.084;2022-10-16T20:17:02;14.68;79.25
68109;SHT30;54893;49.864;19.084;2022-10-16T20:22:03;14.36;80.65
68109;SHT30;54893;49.864;19.084;2022-10-16T20:27:03;14.51;79.46
68109;SHT30;54893;49.864;19.084;2022-10-16T20:32:04;14.61;79.17
68109;SHT30;54893;49.864;19.084;2022-10-16T20:37:04;14.55;79.39
68109;SHT30;54893;49.864;19.084;2022-10-16T20:42:04;14.77;78.97
68109;SHT30;54893;49.864;19.084;2022-10-16T20:47:05;15.02;78.45
68109;SHT30;54893;49.864;19.084;2022-10-16T20:52:05;15.07;78.31
68109;SHT30;54893;49.864;19.084;2022-10-16T20:57:05;14.79;78.85
68109;SHT30;54893;49.864;19.084;2022-10-16T21:02:06;14.59;79.46
68109;SHT30;54893;49.864;19.084;2022-10-16T21:07:07;14.48;79.42
68109;SHT30;54893;49.864;19.084;2022-10-16T21:12:07;14.48;79.55
68109;SHT30;54893;49.864;19.084;2022-10-16T21:17:07;14.32;79.70
68109;SHT30;54893;49.864;19.084;2022-10-16T21:22:08;14.04;80.37
68109;SHT30;54893;49.864;19.084;2022-10-16T21:27:08;14.32;79.98
68109;SHT30;54893;49.864;19.084;2022-10-16T21:32:09;14.49;79.56
68109;SHT30;54893;49.864;19.084;2022-10-16T21:37:09;14.53;79.40
68109;SHT30;54893;49.864;19.084;2022-10-16T21:42:09;14.72;78.77
68109;SHT30;54893;49.864;19.084;2022-10-16T21:47:10;14.49;79.24
68109;SHT30;54893;49.864;19.084;2022-10-16T21:52:10;14.42;79.52
68109;SHT30;54893;49.864;19.084;2022-10-16T21:57:11;14.25;80.20
68109;SHT30;54893;49.864;19.084;2022-10-16T22:02:11;14.20;79.82
68109;SHT30;54893;49.864;19.084;2022-10-16T22:07:12;14.29;79.64
68109;SHT30;54893;49.864;19.084;2022-10-16T22:12:12;14.42;79.36
68109;SHT30;54893;49.864;19.084;2022-10-16T22:17:18;14.28;79.62
68109;SHT30;54893;49.864;19.084;2022-10-16T22:22:18;14.01;80.21
68109;SHT30;54893;49.864;19.084;2022-10-16T22:27:19;12.89;83.02
68109;SHT30;54893;49.864;19.084;2022-10-16T22:32:19;12.34;84.76
68109;SHT30;54893;49.864;19.084;2022-10-16T22:37:20;12.62;84.08
68109;SHT30;54893;49.864;19.084;2022-10-16T22:42:20;12.53;85.89
68109;SHT30;54893;49.864;19.084;2022-10-16T22:47:20;12.22;86.06
68109;SHT30;54893;49.864;19.084;2022-10-16T22:52:21;12.05;87.67
68109;SHT30;54893;49.864;19.084;2022-10-16T22:57:21;12.04;86.12
68109;SHT30;54893;49.864;19.084;2022-10-16T23:02:21;12.11;88.51
68109;SHT30;54893;49.864;19.084;2022-10-16T23:07:22;11.99;88.37
68109;SHT30;54893;49.864;19.084;2022-10-16T23:12:22;11.95;87.06
68109;SHT30;54893;49.864;19.084;2022-10-16T23:17:25;11.91;86.57
68109;SHT30;54893;49.864;19.084;2022-10-16T23:22:25;11.95;89.02
68109;SHT30;54893;49.864;19.084;2022-10-16T23:27:25;11.91;88.23
68109;SHT30;54893;49.864;19.084;2022-10-16T23:32:26;11.87;88.36
68109;SHT30;54893;49.864;19.084;2022-10-16T23:37:26;11.97;87.71
68109;SHT30;54893;49.864;19.084;2022-10-16T23:42:26;12.17;87.13
68109;SHT30;54893;49.864;19.084;2022-10-16T23:47:27;12.55;84.51
68109;SHT30;54893;49.864;19.084;2022-10-16T23:52:27;12.66;84.65
68109;SHT30;54893;49.864;19.084;2022-10-16T23:57:27;12.96;84.36
